createdAt,value
2019-02-19T00:02:18.925Z,20.25
2019-02-19T00:04:48.718Z,19.37
2019-02-19T00:07:18.626Z,20.48
2019-02-19T00:09:48.340Z,20.97
2019-02-19T00:12:18.083Z,20.97
2019-02-19T00:14:48.215Z,20.70
2019-02-19T00:17:18.033Z,20.10
2019-02-19T00:19:47.817Z,19.95
2019-02-19T00:22:17.858Z,20.72
2019-02-19T00:24:48.857Z,20.57
2019-02-19T00:27:21.008Z,19.83
2019-02-19T00:29:50.813Z,21.35
2019-02-19T00:32:20.628Z,19.05
2019-02-19T00:34:50.355Z,20.70
2019-02-19T00:37:20.418Z,18.93
2019-02-19T00:39:50.138Z,20.48
2019-02-19T00:42:19.980Z,20.25
2019-02-19T00:44:50.008Z,21.25
2019-02-19T00:47:19.864Z,20.08
2019-02-19T00:49:49.813Z,19.85
2019-02-19T00:52:19.762Z,20.95
2019-02-19T00:54:49.751Z,20.75
2019-02-19T00:57:19.538Z,20.43
2019-02-19T00:59:49.290Z,22.02
2019-02-19T01:02:19.037Z,22.05
2019-02-19T01:04:48.741Z,22.30
2019-02-19T01:07:18.529Z,20.50
2019-02-19T01:09:48.404Z,20.93
2019-02-19T01:12:18.114Z,21.80
2019-02-19T01:14:48.151Z,21.45
2019-02-19T01:17:17.960Z,21.43
2019-02-19T01:19:48.662Z,20.65
2019-02-19T01:22:19.642Z,20.32
2019-02-19T01:24:49.341Z,19.95
2019-02-19T01:27:19.526Z,21.53
2019-02-19T01:29:49.417Z,21.10
2019-02-19T01:32:19.288Z,20.37
2019-02-19T01:34:49.114Z,20.13
2019-02-19T01:37:18.838Z,20.30
2019-02-19T01:39:49.392Z,21.05
2019-02-19T01:42:19.136Z,19.95
2019-02-19T01:44:48.969Z,19.75
2019-02-19T01:47:18.739Z,19.90
2019-02-19T01:49:50.367Z,21.15
2019-02-19T01:52:20.094Z,21.17
2019-02-19T01:54:49.857Z,19.40
2019-02-19T01:57:20.496Z,22.10
2019-02-19T01:59:51.413Z,22.45
2019-02-19T02:02:21.209Z,20.17
2019-02-19T02:04:51.057Z,20.17
2019-02-19T02:07:20.825Z,21.67
2019-02-19T02:09:51.014Z,21.37
2019-02-19T02:12:20.709Z,21.90
2019-02-19T02:14:50.503Z,22.17
2019-02-19T02:17:20.403Z,21.60
2019-02-19T02:19:50.103Z,20.90
2019-02-19T02:22:19.867Z,22.02
2019-02-19T02:24:49.726Z,20.77
2019-02-19T02:27:19.461Z,20.05
2019-02-19T02:29:49.472Z,20.53
2019-02-19T02:32:19.260Z,20.60
2019-02-19T02:34:49.506Z,20.50
2019-02-19T02:37:19.499Z,19.70
2019-02-19T02:39:49.529Z,19.93
2019-02-19T02:42:19.238Z,20.50
2019-02-19T02:44:48.981Z,19.70
2019-02-19T02:47:18.704Z,20.57
2019-02-19T02:49:48.712Z,20.62
2019-02-19T02:52:18.481Z,19.87
2019-02-19T02:54:48.555Z,20.90
2019-02-19T02:57:18.263Z,19.87
2019-02-19T02:59:49.096Z,20.73
2019-02-19T03:02:19.218Z,19.60
2019-02-19T03:04:49.073Z,20.77
2019-02-19T03:07:29.348Z,19.93
2019-02-19T03:09:59.055Z,19.93
2019-02-19T03:12:28.952Z,19.63
2019-02-19T03:14:58.681Z,20.80
2019-02-19T03:17:28.402Z,19.00
2019-02-19T03:19:58.078Z,20.82
2019-02-19T03:22:27.778Z,19.27
2019-02-19T03:24:57.489Z,19.10
2019-02-19T03:27:27.610Z,19.37
2019-02-19T03:29:57.307Z,18.50
2019-02-19T03:32:27.065Z,18.67
2019-02-19T03:34:56.840Z,19.90
2019-02-19T03:37:26.658Z,18.32
2019-02-19T03:39:56.293Z,19.27
2019-02-19T03:42:26.011Z,19.37
2019-02-19T03:44:55.818Z,18.20
2019-02-19T03:47:26.599Z,18.80
2019-02-19T03:49:56.523Z,19.10
2019-02-19T03:52:26.247Z,18.27
2019-02-19T03:54:58.584Z,19.12
2019-02-19T03:57:28.451Z,18.63
2019-02-19T03:59:58.122Z,19.17
2019-02-19T04:02:27.843Z,19.50
2019-02-19T04:04:57.630Z,21.07
2019-02-19T04:07:27.392Z,19.07
2019-02-19T04:09:57.111Z,19.93
2019-02-19T04:12:27.181Z,19.20
2019-02-19T04:14:56.985Z,19.43
2019-02-19T04:17:26.702Z,19.03
2019-02-19T04:19:56.552Z,20.07
2019-02-19T04:22:27.915Z,19.00
2019-02-19T04:24:57.633Z,19.53
2019-02-19T04:27:27.340Z,20.33
2019-02-19T04:29:57.081Z,21.70
2019-02-19T04:32:26.791Z,21.83
2019-02-19T04:34:56.610Z,19.23
2019-02-19T04:37:26.330Z,21.90
2019-02-19T04:39:56.204Z,20.20
2019-02-19T04:42:25.963Z,20.57
2019-02-19T04:44:55.753Z,18.43
2019-02-19T04:47:25.561Z,19.57
2019-02-19T04:49:55.348Z,20.13
2019-02-19T04:52:25.137Z,20.00
2019-02-19T04:54:55.170Z,21.10
2019-02-19T04:57:24.977Z,17.97
2019-02-19T04:59:57.589Z,20.07
2019-02-19T05:02:28.383Z,19.87
2019-02-19T05:04:58.167Z,19.83
2019-02-19T05:07:28.255Z,21.43
2019-02-19T05:09:58.248Z,20.43
2019-02-19T05:12:28.078Z,22.03
2019-02-19T05:14:57.795Z,21.87
2019-02-19T05:17:27.705Z,19.50
2019-02-19T05:19:58.011Z,20.40
2019-02-19T05:22:28.063Z,19.37
2019-02-19T05:24:57.877Z,19.63
2019-02-19T05:27:28.813Z,21.23
2019-02-19T05:29:58.696Z,20.67
2019-02-19T05:32:28.702Z,21.03
2019-02-19T05:34:58.451Z,23.13
2019-02-19T05:37:28.327Z,22.13
2019-02-19T05:39:58.207Z,22.67
2019-02-19T05:42:29.523Z,21.60
2019-02-19T05:44:59.553Z,19.47
2019-02-19T05:47:30.266Z,20.40
2019-02-19T05:50:01.176Z,20.77
2019-02-19T05:52:31.355Z,20.73
2019-02-19T05:55:01.178Z,20.00
2019-02-19T05:57:31.148Z,22.27
2019-02-19T06:00:02.711Z,21.60
2019-02-19T06:02:33.729Z,22.17
2019-02-19T06:05:05.857Z,23.00
2019-02-19T06:07:35.731Z,21.70
2019-02-19T06:10:06.997Z,22.27
2019-02-19T06:12:36.913Z,20.10
2019-02-19T06:15:08.364Z,21.83
2019-02-19T06:17:38.311Z,19.07
2019-02-19T06:20:09.247Z,21.00
2019-02-19T06:22:39.455Z,20.80
2019-02-19T06:25:09.343Z,20.03
2019-02-19T06:27:39.769Z,22.63
2019-02-19T06:30:11.373Z,22.00
2019-02-19T06:32:41.771Z,21.07
2019-02-19T06:35:12.714Z,20.27
2019-02-19T06:37:44.248Z,20.20
2019-02-19T06:40:15.441Z,21.33
2019-02-19T06:42:45.191Z,20.63
2019-02-19T06:45:15.024Z,21.20
2019-02-19T06:47:45.050Z,21.23
2019-02-19T06:50:14.873Z,20.27
2019-02-19T06:52:45.108Z,20.20
2019-02-19T06:55:15.004Z,21.20
2019-02-19T06:57:44.817Z,21.80
2019-02-19T07:00:14.633Z,21.07
2019-02-19T07:03:01.263Z,20.50
2019-02-19T07:05:32.900Z,21.97
2019-02-19T07:08:03.111Z,22.67
2019-02-19T07:10:34.574Z,21.07
2019-02-19T07:13:04.750Z,21.83
2019-02-19T07:15:34.636Z,22.77
2019-02-19T07:18:04.740Z,22.10
2019-02-19T07:20:34.804Z,24.67
2019-02-19T07:23:04.745Z,24.43
2019-02-19T07:25:34.557Z,27.33
2019-02-19T07:28:04.431Z,24.73
2019-02-19T07:30:34.405Z,25.33
2019-02-19T07:33:04.197Z,25.27
2019-02-19T07:35:34.309Z,25.50
2019-02-19T07:38:04.111Z,24.70
2019-02-19T07:40:33.840Z,26.33
2019-02-19T07:43:04.093Z,26.30
2019-02-19T07:45:34.022Z,26.40
2019-02-19T07:48:03.957Z,26.07
2019-02-19T07:50:33.738Z,27.93
2019-02-19T07:53:03.716Z,30.63
2019-02-19T07:55:33.494Z,30.93
2019-02-19T07:58:03.274Z,28.20
2019-02-19T08:00:33.261Z,27.67
2019-02-19T08:03:05.073Z,29.70
2019-02-19T08:05:35.443Z,27.73
2019-02-19T08:08:06.987Z,31.73
2019-02-19T08:10:37.247Z,31.13
2019-02-19T08:13:07.303Z,31.57
2019-02-19T08:15:37.370Z,27.90
2019-02-19T08:18:07.234Z,29.73
2019-02-19T08:20:37.362Z,31.87
2019-02-19T08:23:07.077Z,32.23
2019-02-19T08:25:36.949Z,29.77
2019-02-19T08:28:06.880Z,32.50
2019-02-19T08:30:36.807Z,31.20
2019-02-19T08:33:06.841Z,30.27
2019-02-19T08:35:36.751Z,33.80
2019-02-19T08:38:06.654Z,32.77
2019-02-19T08:40:36.655Z,31.47
2019-02-19T08:43:06.649Z,31.70
2019-02-19T08:45:36.493Z,33.00
2019-02-19T08:48:06.786Z,32.23
2019-02-19T08:50:36.614Z,34.92
2019-02-19T08:53:06.442Z,34.43
2019-02-19T08:55:36.233Z,32.00
2019-02-19T08:58:06.233Z,33.58
2019-02-19T09:00:36.098Z,33.10
2019-02-19T09:03:05.916Z,35.68
2019-02-19T09:05:35.804Z,33.20
2019-02-19T09:08:05.741Z,33.98
2019-02-19T09:10:35.698Z,30.88
2019-02-19T09:13:05.595Z,32.67
2019-02-19T09:15:35.476Z,33.02
2019-02-19T09:18:05.291Z,33.40
2019-02-19T09:20:36.843Z,31.77
2019-02-19T09:23:06.952Z,33.28
2019-02-19T09:25:36.823Z,31.42
2019-02-19T09:28:06.580Z,29.77
2019-02-19T09:30:36.377Z,29.48
2019-02-19T09:33:06.516Z,27.07
2019-02-19T09:35:36.236Z,30.15
2019-02-19T09:38:06.039Z,32.10
2019-02-19T09:40:36.154Z,31.20
2019-02-19T09:43:05.973Z,26.50
2019-02-19T09:45:35.793Z,30.20
2019-02-19T09:48:05.526Z,28.40
2019-02-19T09:50:35.398Z,26.68
2019-02-19T09:53:07.093Z,31.48
2019-02-19T09:55:37.503Z,30.85
2019-02-19T09:58:07.546Z,30.50
2019-02-19T10:00:37.294Z,31.65
2019-02-19T10:03:07.284Z,32.85
2019-02-19T10:05:37.082Z,30.05
2019-02-19T10:08:06.981Z,27.73
2019-02-19T10:10:36.960Z,28.45
2019-02-19T10:13:06.717Z,26.45
2019-02-19T10:15:37.838Z,27.22
2019-02-19T10:18:10.379Z,27.98
2019-02-19T10:20:39.563Z,27.13
2019-02-19T10:23:09.368Z,27.95
2019-02-19T10:25:40.717Z,28.42
2019-02-19T10:28:10.499Z,29.85
2019-02-19T10:30:40.414Z,28.02
2019-02-19T10:33:10.320Z,29.98
2019-02-19T10:35:40.238Z,30.43
2019-02-19T10:38:10.350Z,28.23
2019-02-19T10:40:40.164Z,29.30
2019-02-19T10:43:10.281Z,28.38
2019-02-19T10:45:40.004Z,26.07
2019-02-19T10:48:18.498Z,27.55
2019-02-19T10:50:41.273Z,28.67
2019-02-19T10:53:11.026Z,29.30
2019-02-19T10:55:42.867Z,28.17
2019-02-19T10:58:12.815Z,29.63
2019-02-19T11:00:42.694Z,27.00
2019-02-19T11:03:12.634Z,26.77
2019-02-19T11:05:42.468Z,28.02
2019-02-19T11:08:12.737Z,28.73
2019-02-19T11:10:42.931Z,29.50
2019-02-19T11:13:12.725Z,25.85
2019-02-19T11:15:43.010Z,23.15
2019-02-19T11:18:13.137Z,19.98
2019-02-19T11:20:42.899Z,22.67
2019-02-19T11:23:12.846Z,20.68
2019-02-19T11:25:42.657Z,18.17
2019-02-19T11:28:12.749Z,18.57
2019-02-19T11:30:42.751Z,19.30
2019-02-19T11:33:12.597Z,21.90
2019-02-19T11:35:42.376Z,20.60
2019-02-19T11:38:12.056Z,19.05
2019-02-19T11:40:41.868Z,20.67
2019-02-19T11:43:12.570Z,20.52
2019-02-19T11:45:42.345Z,18.75
2019-02-19T11:48:12.414Z,17.37
2019-02-19T11:50:42.113Z,17.50
2019-02-19T11:53:11.994Z,18.98
2019-02-19T11:55:41.969Z,19.05
2019-02-19T11:58:14.065Z,18.32
2019-02-19T12:00:45.284Z,19.50
2019-02-19T12:03:15.057Z,19.40
2019-02-19T12:05:46.424Z,19.65
2019-02-19T12:08:16.347Z,19.02
2019-02-19T12:10:46.120Z,18.42
2019-02-19T12:13:15.896Z,19.02
2019-02-19T12:15:47.728Z,18.05
2019-02-19T12:18:17.982Z,18.37
2019-02-19T12:20:47.759Z,17.80
2019-02-19T12:23:17.582Z,19.52
2019-02-19T12:25:47.464Z,19.87
2019-02-19T12:28:17.534Z,19.17
2019-02-19T12:30:47.557Z,19.87
2019-02-19T12:33:17.482Z,17.77
2019-02-19T12:35:47.264Z,19.17
2019-02-19T12:38:17.344Z,17.62
2019-02-19T12:40:47.085Z,16.60
2019-02-19T12:43:17.223Z,15.90
2019-02-19T12:45:47.746Z,16.95
2019-02-19T12:48:17.560Z,14.60
2019-02-19T12:50:47.441Z,15.23
2019-02-19T12:53:17.723Z,14.95
2019-02-19T12:55:47.525Z,15.72
2019-02-19T12:58:17.382Z,14.30
2019-02-19T13:00:47.232Z,11.53
2019-02-19T13:03:17.386Z,12.60
2019-02-19T13:05:47.694Z,13.20
2019-02-19T13:08:17.522Z,12.33
2019-02-19T13:10:47.349Z,13.45
2019-02-19T13:13:17.414Z,13.03
2019-02-19T13:15:47.112Z,13.08
2019-02-19T13:18:16.968Z,14.00
2019-02-19T13:20:46.829Z,13.65
2019-02-19T13:23:18.167Z,15.20
2019-02-19T13:25:48.251Z,13.95
2019-02-19T13:28:18.339Z,14.13
2019-02-19T13:30:48.315Z,13.43
2019-02-19T13:33:18.245Z,13.70
2019-02-19T13:35:48.209Z,12.68
2019-02-19T13:38:17.978Z,12.93
2019-02-19T13:40:47.930Z,12.35
2019-02-19T13:43:17.786Z,10.55
2019-02-19T13:45:47.789Z,11.88
2019-02-19T13:48:17.613Z,11.00
2019-02-19T13:50:47.451Z,10.93
2019-02-19T13:53:21.794Z,7.30
2019-02-19T13:55:54.018Z,6.30
2019-02-19T13:58:23.863Z,6.30
2019-02-19T14:00:54.300Z,6.45
2019-02-19T14:03:24.073Z,6.47
2019-02-19T14:05:54.696Z,8.20
2019-02-19T14:08:24.753Z,5.97
2019-02-19T14:10:54.550Z,7.25
2019-02-19T14:13:24.485Z,5.45
2019-02-19T14:16:01.904Z,6.47
2019-02-19T14:18:45.762Z,5.65
2019-02-19T14:21:33.916Z,5.97
2019-02-19T14:24:20.444Z,6.72
2019-02-19T14:26:58.399Z,7.60
2019-02-19T14:29:42.576Z,5.87
2019-02-19T14:32:17.008Z,6.28
2019-02-19T14:34:52.042Z,6.28
2019-02-19T14:37:35.629Z,6.10
2019-02-19T14:40:20.277Z,6.45
2019-02-19T14:43:08.542Z,5.85
2019-02-19T14:45:46.255Z,6.83
2019-02-19T14:48:34.259Z,5.80
2019-02-19T14:51:07.031Z,5.80
2019-02-19T14:53:47.983Z,5.58
2019-02-19T14:56:31.817Z,6.75
2019-02-19T14:59:12.837Z,5.78
2019-02-19T15:01:56.482Z,5.62
2019-02-19T15:04:37.001Z,6.10
2019-02-19T15:07:13.443Z,6.45
2019-02-19T15:10:03.346Z,6.30
2019-02-19T15:12:46.984Z,5.83
2019-02-19T15:15:30.801Z,6.60
2019-02-19T15:18:18.246Z,6.78
2019-02-19T15:20:52.418Z,5.90
2019-02-19T15:23:23.928Z,5.83
2019-02-19T15:25:55.630Z,6.53
2019-02-19T15:28:29.943Z,6.10
2019-02-19T15:31:18.543Z,6.30
2019-02-19T15:33:56.138Z,5.70
2019-02-19T15:36:44.162Z,6.55
2019-02-19T15:39:21.393Z,5.92
2019-02-19T15:41:52.937Z,5.95
2019-02-19T15:44:24.346Z,6.22
2019-02-19T15:47:01.697Z,6.45
2019-02-19T15:49:48.288Z,5.87
2019-02-19T15:52:38.436Z,5.83
2019-02-19T15:55:24.936Z,5.90
2019-02-19T15:58:12.916Z,6.53
2019-02-19T16:00:47.595Z,6.22
2019-02-19T16:03:29.738Z,6.50
2019-02-19T16:06:04.409Z,6.45
2019-02-19T16:08:44.892Z,6.92
2019-02-19T16:11:16.384Z,6.25
2019-02-19T16:13:57.652Z,6.25
2019-02-19T16:16:29.065Z,6.78
2019-02-19T16:19:18.954Z,6.20
2019-02-19T16:21:59.600Z,5.92
2019-02-19T16:24:46.280Z,5.00
2019-02-19T16:27:17.662Z,6.17
2019-02-19T16:30:07.556Z,5.47
2019-02-19T16:32:55.637Z,6.40
2019-02-19T16:35:39.360Z,5.95
2019-02-19T16:38:19.819Z,5.83
2019-02-19T16:40:51.277Z,5.58
2019-02-19T16:43:23.024Z,5.95
2019-02-19T16:45:54.395Z,6.22
2019-02-19T16:48:38.103Z,6.53
2019-02-19T16:51:12.604Z,5.60
2019-02-19T16:53:45.869Z,5.50
2019-02-19T16:56:21.781Z,6.10
2019-02-19T16:58:53.533Z,6.12
2019-02-19T17:01:41.844Z,6.10
2019-02-19T17:04:25.292Z,6.85
2019-02-19T17:07:06.064Z,6.67
2019-02-19T17:09:55.803Z,6.42
2019-02-19T17:12:42.572Z,5.83
2019-02-19T17:15:16.675Z,6.45
2019-02-19T17:17:57.800Z,6.50
2019-02-19T17:20:32.631Z,6.50
2019-02-19T17:23:09.916Z,8.33
2019-02-19T17:25:42.503Z,7.40
2019-02-19T17:28:23.261Z,7.95
2019-02-19T17:31:13.378Z,7.20
2019-02-19T17:33:44.750Z,7.10
2019-02-19T17:36:25.024Z,6.72
2019-02-19T17:38:56.831Z,7.40
2019-02-19T17:41:40.576Z,6.50
2019-02-19T17:44:12.109Z,6.97
2019-02-19T17:46:46.495Z,6.80
2019-02-19T17:49:27.724Z,6.45
2019-02-19T17:52:16.125Z,7.00
2019-02-19T17:55:03.190Z,6.78
2019-02-19T17:57:45.813Z,7.35
2019-02-19T18:00:23.080Z,6.58
2019-02-19T18:03:06.631Z,7.00
2019-02-19T18:05:47.015Z,6.95
2019-02-19T18:08:30.961Z,7.33
2019-02-19T18:11:02.409Z,6.65
2019-02-19T18:13:43.065Z,7.33
2019-02-19T18:16:14.536Z,6.35
2019-02-19T18:18:46.067Z,7.12
2019-02-19T18:21:15.957Z,6.70
2019-02-19T18:23:45.729Z,7.17
2019-02-19T18:26:15.995Z,6.75
2019-02-19T18:28:48.770Z,6.50
2019-02-19T18:31:19.550Z,7.37
2019-02-19T18:33:50.085Z,6.83
2019-02-19T18:36:22.084Z,6.78
2019-02-19T18:38:52.046Z,6.70
2019-02-19T18:41:21.993Z,6.55
2019-02-19T18:43:51.950Z,7.12
2019-02-19T18:46:22.711Z,6.55
2019-02-19T18:48:52.902Z,7.00
2019-02-19T18:51:22.787Z,6.60
2019-02-19T18:53:54.350Z,7.50
2019-02-19T18:56:24.141Z,7.00
2019-02-19T18:58:54.031Z,6.53
2019-02-19T19:01:23.915Z,7.03
2019-02-19T19:03:54.577Z,7.10
2019-02-19T19:06:24.573Z,6.97
2019-02-19T19:08:54.309Z,6.25
2019-02-19T19:11:24.192Z,6.80
2019-02-19T19:13:53.996Z,6.90
2019-02-19T19:16:25.138Z,6.75
2019-02-19T19:18:54.860Z,6.17
2019-02-19T19:21:24.785Z,6.95
2019-02-19T19:23:55.435Z,7.40
2019-02-19T19:26:25.337Z,7.28
2019-02-19T19:28:55.102Z,6.85
2019-02-19T19:31:33.216Z,7.80
2019-02-19T19:34:03.002Z,7.40
2019-02-19T19:36:36.329Z,7.05
2019-02-19T19:39:06.750Z,7.08
2019-02-19T19:41:38.240Z,6.75
2019-02-19T19:44:08.325Z,8.90
2019-02-19T19:46:38.185Z,9.38
2019-02-19T19:49:08.259Z,8.45
2019-02-19T19:51:38.024Z,9.20
2019-02-19T19:54:07.929Z,11.10
2019-02-19T19:56:37.886Z,9.30
2019-02-19T19:59:09.571Z,8.88
2019-02-19T20:01:39.688Z,9.90
2019-02-19T20:04:10.188Z,9.55
2019-02-19T20:06:40.268Z,9.40
2019-02-19T20:09:10.327Z,9.15
2019-02-19T20:11:42.318Z,9.73
2019-02-19T20:14:12.130Z,9.00
2019-02-19T20:16:42.069Z,8.75
2019-02-19T20:19:13.444Z,8.40
2019-02-19T20:21:44.052Z,8.90
2019-02-19T20:24:14.096Z,9.25
2019-02-19T20:26:44.053Z,8.88
2019-02-19T20:29:14.235Z,8.00
2019-02-19T20:31:44.103Z,9.13
2019-02-19T20:34:14.033Z,9.20
2019-02-19T20:36:43.840Z,9.70
2019-02-19T20:39:14.103Z,8.15
2019-02-19T20:41:44.148Z,8.93
2019-02-19T20:44:14.268Z,8.50
2019-02-19T20:46:44.330Z,8.78
2019-02-19T20:49:14.655Z,8.15
2019-02-19T20:51:44.640Z,7.90
2019-02-19T20:54:14.508Z,8.45
2019-02-19T20:56:44.549Z,8.55
2019-02-19T20:59:14.486Z,8.90
2019-02-19T21:01:44.419Z,8.68
2019-02-19T21:04:14.524Z,8.55
2019-02-19T21:06:44.565Z,8.60
2019-02-19T21:09:15.988Z,8.63
2019-02-19T21:11:45.780Z,8.13
2019-02-19T21:14:15.645Z,9.00
2019-02-19T21:16:46.415Z,8.20
2019-02-19T21:19:16.201Z,8.45
2019-02-19T21:21:46.462Z,8.35
2019-02-19T21:24:17.660Z,8.00
2019-02-19T21:26:49.125Z,10.32
2019-02-19T21:29:21.340Z,10.90
2019-02-19T21:31:51.246Z,7.67
2019-02-19T21:34:21.253Z,7.75
2019-02-19T21:36:51.202Z,8.05
2019-02-19T21:39:21.146Z,15.93
2019-02-19T21:41:51.004Z,12.13
2019-02-19T21:44:21.047Z,7.97
2019-02-19T21:46:51.217Z,8.43
2019-02-19T21:49:25.155Z,7.30
2019-02-19T21:51:55.012Z,8.40
2019-02-19T21:54:24.844Z,9.38
2019-02-19T21:56:55.400Z,8.40
2019-02-19T21:59:25.191Z,7.62
2019-02-19T22:01:54.978Z,8.95
2019-02-19T22:04:24.954Z,8.83
2019-02-19T22:06:54.816Z,9.13
2019-02-19T22:09:25.514Z,11.15
2019-02-19T22:11:56.057Z,11.88
2019-02-19T22:14:26.443Z,11.03
2019-02-19T22:16:57.102Z,11.78
2019-02-19T22:19:27.013Z,13.08
2019-02-19T22:22:03.340Z,12.53
2019-02-19T22:24:36.431Z,12.40
2019-02-19T22:27:06.325Z,9.28
2019-02-19T22:29:36.159Z,9.18
2019-02-19T22:32:06.991Z,9.08
2019-02-19T22:34:36.745Z,8.48
2019-02-19T22:37:06.570Z,8.83
2019-02-19T22:39:36.368Z,9.80
2019-02-19T22:42:06.188Z,9.58
2019-02-19T22:44:37.131Z,8.93
2019-02-19T22:47:06.925Z,8.85
2019-02-19T22:49:37.047Z,9.18
2019-02-19T22:52:12.462Z,10.65
2019-02-19T22:54:42.256Z,11.83
2019-02-19T22:57:12.066Z,12.18
2019-02-19T22:59:41.886Z,10.58
2019-02-19T23:02:15.121Z,12.45
2019-02-19T23:04:45.105Z,11.70
2019-02-19T23:07:14.918Z,12.33
2019-02-19T23:09:44.805Z,11.80
2019-02-19T23:12:14.555Z,9.98
2019-02-19T23:14:45.091Z,9.45
2019-02-19T23:17:14.935Z,10.95
2019-02-19T23:19:44.767Z,11.08
2019-02-19T23:22:21.425Z,10.58
2019-02-19T23:24:46.269Z,11.28
2019-02-19T23:27:16.056Z,10.90
2019-02-19T23:29:45.988Z,10.40
2019-02-19T23:32:15.706Z,10.80
2019-02-19T23:34:46.689Z,10.13
2019-02-19T23:37:16.405Z,10.18
2019-02-19T23:39:46.372Z,9.73
2019-02-19T23:42:16.477Z,10.98
2019-02-19T23:44:46.601Z,10.32
2019-02-19T23:47:16.662Z,9.53
2019-02-19T23:49:46.563Z,10.15
2019-02-19T23:52:16.331Z,10.90
2019-02-19T23:54:46.192Z,10.38
2019-02-19T23:57:15.966Z,10.53
2019-02-19T23:59:46.031Z,12.25
